createdAt,value
2023-03-17T00:00:25.079Z,2.16
2023-03-17T00:03:08.584Z,2.23
2023-03-17T00:05:54.346Z,2.26
2023-03-17T00:08:37.511Z,2.30
2023-03-17T00:11:21.617Z,2.31
2023-03-17T00:14:04.630Z,2.32
2023-03-17T00:16:50.906Z,2.35
2023-03-17T00:19:36.355Z,2.38
2023-03-17T00:22:22.208Z,2.38
2023-03-17T00:25:18.162Z,2.39
2023-03-17T00:28:02.088Z,2.44
2023-03-17T00:30:45.011Z,2.50
2023-03-17T00:33:30.844Z,2.49
2023-03-17T00:36:17.987Z,2.54
2023-03-17T00:39:02.336Z,2.53
2023-03-17T00:44:28.088Z,2.59
2023-03-17T00:47:13.121Z,2.58
2023-03-17T00:49:55.936Z,2.52
2023-03-17T00:52:39.325Z,2.52
2023-03-17T00:55:25.014Z,2.53
2023-03-17T00:58:15.132Z,2.52
2023-03-17T01:00:58.189Z,2.52
2023-03-17T01:03:41.493Z,2.51
2023-03-17T01:06:24.560Z,2.57
2023-03-17T01:09:08.259Z,2.56
2023-03-17T01:11:53.084Z,2.47
2023-03-17T01:14:37.894Z,2.46
2023-03-17T01:17:21.600Z,2.42
2023-03-17T01:20:05.617Z,2.29
2023-03-17T01:22:48.578Z,2.35
2023-03-17T01:25:32.083Z,2.31
2023-03-17T01:28:18.907Z,2.30
2023-03-17T01:31:02.790Z,2.20
2023-03-17T01:33:46.075Z,2.19
2023-03-17T01:36:28.911Z,2.18
2023-03-17T01:39:12.868Z,2.25
2023-03-17T01:41:57.233Z,2.39
2023-03-17T01:44:59.692Z,2.42
2023-03-17T01:47:42.490Z,2.51
2023-03-17T01:50:25.650Z,2.55
2023-03-17T01:53:09.607Z,2.68
2023-03-17T01:55:53.706Z,2.55
2023-03-17T01:58:37.066Z,2.62
2023-03-17T02:01:27.638Z,2.64
2023-03-17T02:04:12.152Z,2.68
2023-03-17T02:06:58.278Z,2.62
2023-03-17T02:09:41.338Z,2.62
2023-03-17T02:12:26.112Z,2.63
2023-03-17T02:15:10.269Z,2.65
2023-03-17T02:17:54.436Z,2.64
2023-03-17T02:21:14.280Z,2.59
2023-03-17T02:24:01.682Z,2.69
2023-03-17T02:26:46.498Z,2.76
2023-03-17T02:29:29.256Z,2.80
2023-03-17T02:32:12.205Z,2.80
2023-03-17T02:34:54.983Z,2.77
2023-03-17T02:37:38.536Z,2.79
2023-03-17T02:40:23.032Z,2.78
2023-03-17T02:43:05.752Z,2.82
2023-03-17T02:45:48.625Z,2.92
2023-03-17T02:48:32.016Z,3.01
2023-03-17T02:51:14.796Z,3.01
2023-03-17T02:53:57.632Z,2.97
2023-03-17T02:56:42.013Z,2.80
2023-03-17T02:59:24.823Z,2.72
2023-03-17T03:02:07.638Z,2.78
2023-03-17T03:04:50.676Z,2.72
2023-03-17T03:07:33.604Z,2.79
2023-03-17T03:10:16.586Z,2.79
2023-03-17T03:13:01.546Z,2.74
2023-03-17T03:15:45.122Z,2.79
2023-03-17T03:18:28.029Z,2.78
2023-03-17T03:21:10.878Z,2.77
2023-03-17T03:23:53.765Z,2.80
2023-03-17T03:26:37.098Z,2.91
2023-03-17T03:29:21.301Z,3.02
2023-03-17T03:32:04.261Z,3.05
2023-03-17T03:34:47.069Z,3.02
2023-03-17T03:37:29.876Z,3.02
2023-03-17T03:40:13.731Z,3.15
2023-03-17T03:42:56.847Z,3.15
2023-03-17T03:45:41.453Z,3.27
2023-03-17T03:48:24.168Z,3.20
2023-03-17T03:51:06.970Z,3.31
2023-03-17T03:53:49.827Z,3.37
2023-03-17T03:56:32.660Z,3.48
2023-03-17T03:59:15.478Z,3.50
2023-03-17T04:01:59.659Z,3.64
2023-03-17T04:04:42.752Z,3.71
2023-03-17T04:07:25.790Z,3.67
2023-03-17T04:10:09.895Z,3.68
2023-03-17T04:12:52.852Z,3.70
2023-03-17T04:15:35.867Z,3.63
2023-03-17T04:18:20.044Z,3.62
2023-03-17T04:21:02.921Z,3.73
2023-03-17T04:23:45.864Z,3.73
2023-03-17T04:26:28.703Z,3.68
2023-03-17T04:29:15.612Z,3.73
2023-03-17T04:31:58.552Z,3.74
2023-03-17T04:34:43.864Z,3.73
2023-03-17T04:37:27.318Z,3.78
2023-03-17T04:40:12.643Z,3.78
2023-03-17T04:42:55.612Z,3.59
2023-03-17T04:45:38.486Z,3.67
2023-03-17T04:48:21.635Z,3.79
2023-03-17T04:51:06.173Z,3.85
2023-03-17T04:53:48.925Z,3.72
2023-03-17T04:56:32.181Z,3.74
2023-03-17T04:59:16.250Z,3.75
2023-03-17T05:01:59.100Z,3.70
2023-03-17T05:04:42.120Z,3.83
2023-03-17T05:07:26.400Z,3.88
2023-03-17T05:10:10.370Z,3.79
2023-03-17T05:12:53.425Z,3.79
2023-03-17T05:15:36.483Z,3.87
2023-03-17T05:18:20.975Z,3.90
2023-03-17T05:21:04.583Z,3.87
2023-03-17T05:23:48.925Z,3.77
2023-03-17T05:26:31.739Z,3.85
2023-03-17T05:29:14.598Z,3.85
2023-03-17T05:31:57.398Z,3.87
2023-03-17T05:34:40.195Z,4.01
2023-03-17T05:37:22.987Z,4.13
2023-03-17T05:40:08.355Z,4.21
2023-03-17T05:42:51.591Z,4.19
2023-03-17T05:45:34.749Z,4.13
2023-03-17T05:48:17.938Z,4.19
2023-03-17T05:51:00.903Z,4.28
2023-03-17T05:53:43.902Z,4.31
2023-03-17T05:56:33.383Z,4.29
2023-03-17T05:59:16.864Z,4.24
2023-03-17T06:01:59.764Z,4.35
2023-03-17T06:04:43.183Z,4.39
2023-03-17T06:07:28.382Z,4.39
2023-03-17T06:10:14.004Z,4.55
2023-03-17T06:12:58.949Z,4.65
2023-03-17T06:15:42.517Z,4.74
2023-03-17T06:18:25.551Z,4.83
2023-03-17T06:21:08.314Z,4.92
2023-03-17T06:23:51.197Z,5.02
2023-03-17T06:26:34.428Z,5.05
2023-03-17T06:29:18.800Z,5.14
2023-03-17T06:32:18.866Z,5.23
2023-03-17T06:35:02.472Z,5.32
2023-03-17T06:37:45.248Z,5.35
2023-03-17T06:40:28.132Z,5.51
2023-03-17T06:43:11.032Z,5.60
2023-03-17T06:45:55.171Z,5.70
2023-03-17T06:48:38.294Z,5.85
2023-03-17T06:51:21.205Z,6.04
2023-03-17T06:54:04.122Z,6.24
2023-03-17T06:56:46.863Z,6.43
2023-03-17T06:59:30.647Z,6.61
2023-03-17T07:02:15.360Z,6.81
2023-03-17T07:04:59.180Z,7.07
2023-03-17T07:07:42.526Z,7.29
2023-03-17T07:10:25.512Z,7.51
2023-03-17T07:13:08.625Z,7.76
2023-03-17T07:15:54.520Z,7.98
2023-03-17T07:18:39.448Z,8.17
2023-03-17T07:21:22.317Z,8.20
2023-03-17T07:24:05.462Z,8.30
2023-03-17T07:26:49.116Z,8.44
2023-03-17T07:29:33.948Z,8.54
2023-03-17T07:32:17.085Z,8.65
2023-03-17T07:35:01.218Z,8.74
2023-03-17T07:37:44.658Z,8.95
2023-03-17T07:40:27.699Z,9.09
2023-03-17T07:43:11.069Z,9.21
2023-03-17T07:45:53.907Z,9.36
2023-03-17T07:48:40.943Z,9.50
2023-03-17T07:51:27.761Z,9.60
2023-03-17T07:54:10.797Z,9.72
2023-03-17T07:56:54.137Z,9.86
2023-03-17T07:59:37.027Z,9.99
2023-03-17T08:02:21.161Z,10.13
2023-03-17T08:05:04.160Z,10.24
2023-03-17T08:07:48.817Z,10.30
2023-03-17T08:10:32.018Z,10.30
2023-03-17T08:13:15.258Z,10.36
2023-03-17T08:15:58.289Z,10.41
2023-03-17T08:18:41.335Z,10.39
2023-03-17T08:21:24.153Z,10.46
2023-03-17T08:24:08.733Z,10.46
2023-03-17T08:26:51.525Z,10.38
2023-03-17T08:29:34.889Z,10.49
2023-03-17T08:32:18.515Z,10.56
2023-03-17T08:35:01.648Z,10.66
2023-03-17T08:37:44.584Z,10.74
2023-03-17T08:40:29.175Z,10.91
2023-03-17T08:43:12.609Z,11.04
2023-03-17T08:46:03.150Z,11.15
2023-03-17T08:48:48.183Z,11.23
2023-03-17T08:51:32.903Z,11.38
2023-03-17T08:54:15.834Z,11.54
2023-03-17T08:57:01.797Z,11.70
2023-03-17T08:59:44.704Z,11.86
2023-03-17T09:02:28.383Z,12.05
2023-03-17T09:05:13.758Z,12.19
2023-03-17T09:07:56.645Z,12.34
2023-03-17T09:10:39.946Z,12.59
2023-03-17T09:13:24.174Z,12.86
2023-03-17T09:16:08.825Z,13.11
2023-03-17T09:18:51.937Z,13.35
2023-03-17T09:21:34.750Z,13.63
2023-03-17T09:24:18.936Z,13.92
2023-03-17T09:27:01.721Z,14.20
2023-03-17T09:29:46.081Z,14.39
2023-03-17T09:32:28.936Z,14.61
2023-03-17T09:35:12.399Z,14.84
2023-03-17T09:37:55.863Z,15.04
2023-03-17T09:40:48.218Z,15.39
2023-03-17T09:43:42.912Z,15.69
2023-03-17T09:46:40.750Z,15.77
2023-03-17T09:49:39.150Z,15.82
2023-03-17T09:52:29.025Z,16.07
2023-03-17T09:55:20.847Z,16.27
2023-03-17T09:58:04.971Z,16.42
2023-03-17T10:00:47.891Z,16.66
2023-03-17T10:03:34.202Z,16.86
2023-03-17T10:06:28.716Z,16.94
2023-03-17T10:09:26.200Z,17.02
2023-03-17T10:12:16.685Z,16.93
2023-03-17T10:15:02.830Z,16.97
2023-03-17T10:17:46.151Z,17.09
2023-03-17T10:20:34.546Z,17.33
2023-03-17T10:23:21.651Z,17.46
2023-03-17T10:26:09.533Z,17.46
2023-03-17T10:28:53.999Z,17.52
2023-03-17T10:31:38.008Z,17.33
2023-03-17T10:34:25.508Z,17.55
2023-03-17T10:37:15.115Z,17.71
2023-03-17T10:39:59.844Z,17.75
2023-03-17T10:42:49.079Z,17.92
2023-03-17T10:45:33.706Z,17.99
2023-03-17T10:48:20.715Z,17.90
2023-03-17T10:51:08.437Z,17.98
2023-03-17T10:53:54.255Z,18.20
2023-03-17T10:56:38.557Z,18.30
2023-03-17T11:02:25.787Z,18.53
2023-03-17T11:05:20.507Z,18.57
2023-03-17T11:08:11.317Z,18.63
2023-03-17T11:10:57.617Z,18.73
2023-03-17T11:13:40.938Z,18.80
2023-03-17T11:16:25.260Z,18.78
2023-03-17T11:19:15.437Z,18.93
2023-03-17T11:22:07.052Z,18.85
2023-03-17T11:25:00.489Z,18.73
2023-03-17T11:27:50.334Z,18.66
2023-03-17T11:30:36.927Z,18.72
2023-03-17T11:33:33.632Z,18.76
2023-03-17T11:36:29.112Z,18.96
2023-03-17T11:39:15.703Z,19.13
2023-03-17T11:42:09.458Z,19.16
2023-03-17T11:45:23.987Z,19.15
2023-03-17T11:48:15.484Z,19.13
2023-03-17T11:51:03.045Z,19.01
2023-03-17T11:54:04.590Z,18.89
2023-03-17T11:56:51.015Z,18.85
2023-03-17T11:59:40.738Z,18.83
2023-03-17T12:02:32.119Z,19.01
2023-03-17T12:05:18.953Z,19.10
2023-03-17T12:08:05.902Z,19.10
2023-03-17T12:10:51.780Z,19.11
2023-03-17T12:13:40.210Z,19.12
2023-03-17T12:16:33.165Z,19.01
2023-03-17T12:19:22.738Z,19.11
2023-03-17T12:22:10.880Z,19.27
2023-03-17T12:25:05.464Z,19.48
2023-03-17T12:27:55.367Z,19.68
2023-03-17T12:30:47.584Z,19.81
2023-03-17T12:33:36.092Z,19.83
2023-03-17T12:36:21.920Z,19.76
2023-03-17T12:39:10.322Z,19.67
2023-03-17T12:42:14.574Z,19.75
2023-03-17T12:45:21.142Z,19.77
2023-03-17T12:48:41.231Z,19.64
2023-03-17T12:51:46.311Z,19.73
2023-03-17T12:54:31.821Z,19.47
2023-03-17T12:57:18.982Z,19.46
2023-03-17T13:00:09.021Z,19.54
2023-03-17T13:02:53.247Z,19.33
2023-03-17T13:05:37.725Z,19.33
2023-03-17T13:08:30.319Z,19.63
2023-03-17T13:11:19.678Z,19.77
2023-03-17T13:14:17.391Z,19.89
2023-03-17T13:17:05.696Z,19.95
2023-03-17T13:19:56.949Z,19.91
2023-03-17T13:22:41.481Z,19.83
2023-03-17T13:25:33.601Z,19.78
2023-03-17T13:28:26.279Z,19.79
2023-03-17T13:31:12.455Z,19.78
2023-03-17T13:33:57.602Z,19.64
2023-03-17T13:36:47.566Z,19.47
2023-03-17T13:39:54.074Z,19.34
2023-03-17T13:42:54.690Z,19.25
2023-03-17T13:45:39.405Z,19.17
2023-03-17T13:48:33.042Z,19.04
2023-03-17T13:51:22.061Z,18.89
2023-03-17T13:54:10.265Z,18.81
2023-03-17T13:56:55.093Z,18.74
2023-03-17T13:59:55.357Z,18.61
2023-03-17T14:02:40.851Z,18.50
2023-03-17T14:05:28.026Z,18.37
2023-03-17T14:08:18.403Z,18.26
2023-03-17T14:11:04.262Z,18.18
2023-03-17T14:13:54.795Z,18.02
2023-03-17T14:16:45.469Z,17.82
2023-03-17T14:19:31.121Z,17.77
2023-03-17T14:22:22.371Z,17.69
2023-03-17T14:25:08.363Z,17.62
2023-03-17T14:27:54.204Z,17.54
2023-03-17T14:30:37.515Z,17.48
2023-03-17T14:33:26.992Z,17.45
2023-03-17T14:36:14.622Z,17.42
2023-03-17T14:38:58.258Z,17.36
2023-03-17T14:41:41.048Z,17.30
2023-03-17T14:44:23.921Z,17.18
2023-03-17T14:47:13.950Z,17.14
2023-03-17T14:49:58.165Z,17.06
2023-03-17T14:52:41.634Z,16.98
2023-03-17T14:55:35.762Z,16.94
2023-03-17T14:58:24.025Z,16.91
2023-03-17T15:01:09.089Z,16.83
2023-03-17T15:03:57.628Z,16.77
2023-03-17T15:06:50.987Z,16.68
2023-03-17T15:09:37.498Z,16.57
2023-03-17T15:12:24.479Z,16.53
2023-03-17T15:15:19.026Z,16.48
2023-03-17T15:18:06.104Z,16.39
2023-03-17T15:20:48.902Z,16.30
2023-03-17T15:23:41.350Z,16.19
2023-03-17T15:26:32.124Z,16.11
2023-03-17T15:29:14.895Z,16.02
2023-03-17T15:32:04.676Z,15.90
2023-03-17T15:34:47.637Z,15.78
2023-03-17T15:37:32.664Z,15.71
2023-03-17T15:40:17.014Z,15.61
2023-03-17T15:43:00.608Z,15.52
2023-03-17T15:45:45.294Z,15.43
2023-03-17T15:48:29.844Z,15.29
2023-03-17T15:51:12.646Z,15.19
2023-03-17T15:53:55.455Z,15.10
2023-03-17T15:56:39.764Z,15.01
2023-03-17T15:59:22.542Z,14.92
2023-03-17T16:02:22.588Z,14.85
2023-03-17T16:05:16.776Z,14.79
2023-03-17T16:07:59.612Z,14.73
2023-03-17T16:10:42.803Z,14.66
2023-03-17T16:13:26.989Z,14.60
2023-03-17T16:16:18.217Z,14.51
2023-03-17T16:19:01.479Z,14.41
2023-03-17T16:21:44.382Z,14.36
2023-03-17T16:24:28.170Z,14.30
2023-03-17T16:27:15.740Z,14.22
2023-03-17T16:29:59.897Z,14.17
2023-03-17T16:32:42.803Z,14.11
2023-03-17T16:35:26.738Z,14.05
2023-03-17T16:38:12.336Z,13.98
2023-03-17T16:40:56.432Z,13.92
2023-03-17T16:43:43.450Z,13.87
2023-03-17T16:46:29.095Z,13.82
2023-03-17T16:49:15.600Z,13.75
2023-03-17T16:51:58.412Z,13.71
2023-03-17T16:54:41.180Z,13.65
2023-03-17T16:57:24.022Z,13.59
2023-03-17T17:00:08.347Z,13.55
2023-03-17T17:02:53.517Z,13.48
2023-03-17T17:05:36.429Z,13.36
2023-03-17T17:08:19.237Z,13.21
2023-03-17T17:11:02.789Z,13.05
2023-03-17T17:13:47.042Z,12.94
2023-03-17T17:16:31.932Z,12.82
2023-03-17T17:19:17.929Z,12.71
2023-03-17T17:22:00.702Z,12.60
2023-03-17T17:24:43.570Z,12.48
2023-03-17T17:27:26.381Z,12.36
2023-03-17T17:30:11.967Z,12.26
2023-03-17T17:32:57.132Z,12.19
2023-03-17T17:35:42.179Z,12.10
2023-03-17T17:38:27.318Z,12.03
2023-03-17T17:41:11.005Z,11.93
2023-03-17T17:43:54.056Z,11.86
2023-03-17T17:46:37.650Z,11.79
2023-03-17T17:49:21.146Z,11.74
2023-03-17T17:52:05.573Z,11.69
2023-03-17T17:54:48.328Z,11.63
2023-03-17T17:57:31.196Z,11.53
2023-03-17T18:00:16.815Z,11.39
2023-03-17T18:02:59.720Z,11.31
2023-03-17T18:05:42.856Z,11.19
2023-03-17T18:08:27.095Z,11.13
2023-03-17T18:11:09.945Z,11.08
2023-03-17T18:13:52.763Z,10.96
2023-03-17T18:16:36.582Z,10.84
2023-03-17T18:19:19.411Z,10.80
2023-03-17T18:22:02.441Z,10.68
2023-03-17T18:24:46.571Z,10.65
2023-03-17T18:27:29.384Z,10.66
2023-03-17T18:30:15.482Z,10.64
2023-03-17T18:33:03.450Z,10.61
2023-03-17T18:35:48.671Z,10.61
2023-03-17T18:38:31.905Z,10.59
2023-03-17T18:41:16.302Z,10.55
2023-03-17T18:43:59.362Z,10.51
2023-03-17T18:46:42.170Z,10.39
2023-03-17T18:49:27.113Z,10.36
2023-03-17T18:52:10.142Z,10.28
2023-03-17T18:54:52.901Z,10.20
2023-03-17T18:57:37.198Z,10.06
2023-03-17T19:00:20.468Z,10.03
2023-03-17T19:03:03.280Z,10.01
2023-03-17T19:05:46.864Z,10.01
2023-03-17T19:08:29.639Z,9.98
2023-03-17T19:11:15.324Z,9.92
2023-03-17T19:13:59.452Z,9.88
2023-03-17T19:16:42.338Z,9.82
2023-03-17T19:19:25.093Z,9.71
2023-03-17T19:22:07.935Z,9.73
2023-03-17T19:24:50.943Z,9.73
2023-03-17T19:27:33.828Z,9.72
2023-03-17T19:30:18.897Z,9.72
2023-03-17T19:33:01.806Z,9.71
2023-03-17T19:35:45.162Z,9.68
2023-03-17T19:38:28.478Z,9.52
2023-03-17T19:41:11.381Z,9.43
2023-03-17T19:43:54.173Z,9.38
2023-03-17T19:46:39.148Z,9.10
2023-03-17T19:49:22.325Z,8.88
2023-03-17T19:52:05.235Z,8.93
2023-03-17T19:54:48.070Z,9.03
2023-03-17T19:57:31.852Z,8.92
2023-03-17T20:00:15.513Z,8.87
2023-03-17T20:02:59.631Z,8.91
2023-03-17T20:05:42.579Z,8.97
2023-03-17T20:08:25.523Z,9.03
2023-03-17T20:11:08.464Z,9.03
2023-03-17T20:13:51.606Z,9.05
2023-03-17T20:16:36.136Z,9.05
2023-03-17T20:19:21.040Z,9.06
2023-03-17T20:22:03.827Z,9.04
2023-03-17T20:24:46.702Z,9.02
2023-03-17T20:27:30.068Z,9.04
2023-03-17T20:30:13.441Z,9.04
2023-03-17T20:32:56.482Z,8.96
2023-03-17T20:35:42.194Z,8.88
2023-03-17T20:38:25.623Z,8.82
2023-03-17T20:41:10.027Z,8.74
2023-03-17T20:43:53.101Z,8.75
2023-03-17T20:46:36.054Z,8.88
2023-03-17T20:49:18.922Z,8.96
2023-03-17T20:52:03.162Z,9.02
2023-03-17T20:54:46.294Z,9.03
2023-03-17T20:57:30.270Z,9.07
2023-03-17T21:00:17.781Z,9.13
2023-03-17T21:03:00.611Z,9.11
2023-03-17T21:05:43.509Z,9.16
2023-03-17T21:08:27.701Z,9.11
2023-03-17T21:11:17.083Z,9.04
2023-03-17T21:13:59.886Z,9.05
2023-03-17T21:16:44.832Z,9.08
2023-03-17T21:19:27.918Z,9.05
2023-03-17T21:22:10.979Z,9.05
2023-03-17T21:24:55.442Z,8.97
2023-03-17T21:27:38.850Z,8.95
2023-03-17T21:30:22.122Z,8.93
2023-03-17T21:33:05.663Z,9.02
2023-03-17T21:35:48.489Z,9.05
2023-03-17T21:38:32.102Z,9.03
2023-03-17T21:41:30.278Z,8.99
2023-03-17T21:44:15.830Z,8.95
2023-03-17T21:46:59.898Z,8.90
2023-03-17T21:49:42.682Z,8.86
2023-03-17T21:52:25.600Z,8.79
2023-03-17T21:55:09.397Z,8.72
2023-03-17T21:57:53.582Z,8.63
2023-03-17T22:00:45.189Z,8.57
2023-03-17T22:03:28.684Z,8.54
2023-03-17T22:06:14.934Z,8.51
2023-03-17T22:08:57.756Z,8.50
2023-03-17T22:11:40.524Z,8.47
2023-03-17T22:14:24.769Z,8.42
2023-03-17T22:17:08.247Z,8.36
2023-03-17T22:19:52.988Z,8.29
2023-03-17T22:22:35.876Z,8.18
2023-03-17T22:25:18.791Z,8.20
2023-03-17T22:28:01.569Z,8.25
2023-03-17T22:30:46.057Z,8.28
2023-03-17T22:33:29.323Z,8.32
2023-03-17T22:36:12.524Z,8.35
2023-03-17T22:38:56.572Z,8.34
2023-03-17T22:41:39.590Z,8.36
2023-03-17T22:44:22.395Z,8.35
2023-03-17T22:47:08.105Z,8.32
2023-03-17T22:49:50.997Z,8.30
2023-03-17T22:52:33.853Z,8.28
2023-03-17T22:55:16.764Z,8.26
2023-03-17T22:57:59.549Z,8.24
2023-03-17T23:00:42.521Z,8.17
2023-03-17T23:03:27.743Z,8.10
2023-03-17T23:06:13.140Z,8.02
2023-03-17T23:08:56.061Z,7.96
2023-03-17T23:11:38.843Z,7.99
2023-03-17T23:14:21.670Z,8.01
2023-03-17T23:17:04.776Z,8.03
2023-03-17T23:19:49.253Z,8.03
2023-03-17T23:22:32.322Z,8.01
2023-03-17T23:25:15.519Z,8.01
2023-03-17T23:27:58.335Z,7.99
2023-03-17T23:30:41.382Z,7.96
2023-03-17T23:33:25.502Z,7.93
2023-03-17T23:36:10.890Z,7.89
2023-03-17T23:38:53.675Z,7.86
2023-03-17T23:41:37.232Z,7.83
2023-03-17T23:44:20.139Z,7.81
2023-03-17T23:47:02.946Z,7.78
2023-03-17T23:49:45.917Z,7.74
2023-03-17T23:52:30.629Z,7.72
2023-03-17T23:55:13.852Z,7.71
2023-03-17T23:57:56.725Z,7.74
